Time;durP1;ratioP1;P1;durP2;ratioP2;P2;SDS_P1;SDS_P2;PMS_P1;PMS_P2;Temp;Humidity;BMP_temperature;BMP_pressure;BME280_temperature;BME280_humidity;BME280_pressure;Samples;Min_cycle;Max_cycle;Signal;HPM_P1;HPM_P2
2023/09/29 00:00:55;;;;;;;5.82;1.50;;;;;;;10.19;100.00;100360.31;5056459;28;20099;-74
2023/09/29 00:03:21;;;;;;;3.35;1.15;;;;;;;10.27;100.00;100371.00;5073125;28;20043;-74
2023/09/29 00:05:49;;;;;;;8.18;1.15;;;;;;;10.41;100.00;100361.31;5072861;28;20029;-74
2023/09/29 00:08:22;;;;;;;2.90;1.17;;;;;;;10.45;100.00;100373.34;5040762;28;20029;-74
2023/09/29 00:10:50;;;;;;;12.23;1.73;;;;;;;10.39;100.00;100377.63;5056708;28;20047;-74
2023/09/29 00:13:16;;;;;;;6.47;1.27;;;;;;;10.34;100.00;100369.28;5023566;28;20040;-73
2023/09/29 00:15:48;;;;;;;9.30;1.38;;;;;;;10.17;100.00;100373.13;5056317;28;20119;-73
2023/09/29 00:18:15;;;;;;;15.02;1.90;;;;;;;10.06;100.00;100377.91;5073040;28;20052;-74
2023/09/29 00:20:40;;;;;;;6.68;1.38;;;;;;;9.99;100.00;100374.28;5073019;28;20051;-73
2023/09/29 00:23:06;;;;;;;6.32;2.05;;;;;;;10.13;100.00;100392.31;5056393;28;20032;-74
2023/09/29 00:25:32;;;;;;;5.97;1.13;;;;;;;10.16;100.00;100393.78;5072547;28;20387;-73
2023/09/29 00:28:00;;;;;;;8.75;1.42;;;;;;;10.12;100.00;100401.34;5039788;28;20472;-74
2023/09/29 00:30:26;;;;;;;9.13;1.42;;;;;;;10.14;100.00;100398.50;5056119;28;20029;-73
2023/09/29 00:32:53;;;;;;;6.43;1.15;;;;;;;10.12;100.00;100404.03;5056281;28;20081;-74
2023/09/29 00:35:27;;;;;;;4.40;1.58;;;;;;;10.20;100.00;100400.44;5039513;28;20029;-75
2023/09/29 00:37:54;;;;;;;5.57;1.30;;;;;;;10.34;100.00;100412.28;5057052;28;20067;-74
2023/09/29 00:40:21;;;;;;;4.97;1.02;;;;;;;10.43;100.00;100413.03;5055604;28;20036;-73
2023/09/29 00:42:48;;;;;;;15.60;1.42;;;;;;;10.35;100.00;100416.66;5056223;28;20036;-73
2023/09/29 00:45:16;;;;;;;2.53;1.02;;;;;;;10.32;100.00;100422.41;5039755;28;20127;-74
2023/09/29 00:47:43;;;;;;;12.10;1.50;;;;;;;10.35;100.00;100427.41;5055250;28;20094;-74
2023/09/29 00:50:14;;;;;;;8.95;1.48;;;;;;;10.35;100.00;100430.09;5055971;28;20028;-76
2023/09/29 00:52:40;;;;;;;8.85;1.38;;;;;;;10.44;100.00;100439.72;5055660;28;20024;-74
2023/09/29 00:55:12;;;;;;;6.25;1.35;;;;;;;10.51;100.00;100439.84;5055878;28;20105;-74
2023/09/29 00:57:43;;;;;;;7.50;0.98;;;;;;;10.52;100.00;100449.56;5056415;28;20478;-73
2023/09/29 01:00:19;;;;;;;7.50;1.25;;;;;;;10.44;100.00;100452.34;5055694;28;20028;-75
2023/09/29 01:02:51;;;;;;;9.27;1.17;;;;;;;10.34;100.00;100455.28;5041517;28;20387;-74
2023/09/29 01:05:18;;;;;;;9.18;1.15;;;;;;;10.26;100.00;100466.88;5039007;28;20372;-73
2023/09/29 01:07:44;;;;;;;3.63;1.05;;;;;;;10.17;100.00;100465.31;5055873;28;20032;-74
2023/09/29 01:10:16;;;;;;;8.05;1.40;;;;;;;10.08;100.00;100467.22;5072155;28;20039;-73
2023/09/29 01:12:41;;;;;;;9.52;1.00;;;;;;;10.02;100.00;100475.16;5073197;28;20045;-74
2023/09/29 01:15:12;;;;;;;3.53;1.13;;;;;;;10.01;100.00;100479.69;5038918;28;20025;-75
2023/09/29 01:17:41;;;;;;;7.47;1.10;;;;;;;10.05;100.00;100477.47;5056157;28;20382;-74
2023/09/29 01:20:18;;;;;;;8.23;1.35;;;;;;;9.99;100.00;100480.88;5039192;28;20064;-75
2023/09/29 01:22:48;;;;;;;8.23;1.10;;;;;;;9.88;100.00;100487.50;5057081;28;20441;-73
2023/09/29 01:25:15;;;;;;;6.97;0.98;;;;;;;9.86;100.00;100493.03;5038914;28;20043;-74
2023/09/29 01:27:41;;;;;;;6.80;1.65;;;;;;;9.84;100.00;100495.09;5072205;28;20479;-74
2023/09/29 01:30:09;;;;;;;2.15;1.20;;;;;;;9.88;100.00;100496.38;5055387;28;20052;-75
2023/09/29 01:32:37;;;;;;;4.18;1.20;;;;;;;9.89;100.00;100494.53;5039138;28;20036;-74
2023/09/29 01:35:04;;;;;;;10.07;1.20;;;;;;;9.90;100.00;100505.13;5055299;28;20054;-74
2023/09/29 01:37:29;;;;;;;8.48;1.10;;;;;;;9.85;100.00;100506.66;5055360;28;20024;-74
2023/09/29 01:39:55;;;;;;;11.77;1.90;;;;;;;9.83;100.00;100506.81;5055599;28;20024;-74
2023/09/29 01:42:21;;;;;;;10.43;1.17;;;;;;;9.87;100.00;100518.91;5038377;28;20452;-74
2023/09/29 01:44:46;;;;;;;4.90;1.02;;;;;;;9.94;100.00;100519.00;5038591;28;20037;-74
2023/09/29 01:47:12;;;;;;;10.90;1.30;;;;;;;9.96;100.00;100522.38;5038493;28;20036;-73
2023/09/29 01:49:37;;;;;;;10.98;1.55;;;;;;;9.86;100.00;100517.22;5038450;28;20445;-74
2023/09/29 01:52:03;;;;;;;5.10;1.00;;;;;;;9.81;100.00;100516.91;5038605;28;20119;-74
2023/09/29 01:54:29;;;;;;;2.45;0.70;;;;;;;9.79;100.00;100513.59;5038629;28;20120;-74
2023/09/29 01:56:54;;;;;;;3.55;1.20;;;;;;;9.82;100.00;100509.72;5038628;28;20036;-74
2023/09/29 01:59:20;;;;;;;13.15;2.10;;;;;;;9.87;100.00;100515.34;5057433;28;20509;-74
2023/09/29 02:01:45;;;;;;;10.18;1.45;;;;;;;9.80;100.00;100514.41;5058620;28;20378;-73
2023/09/29 02:04:11;;;;;;;7.90;1.08;;;;;;;9.78;100.00;100522.63;5074892;28;20028;-75
2023/09/29 02:06:37;;;;;;;9.18;1.83;;;;;;;9.77;100.00;100525.50;5041780;28;20494;-74
2023/09/29 02:09:09;;;;;;;8.40;1.33;;;;;;;9.74;100.00;100515.09;5075114;28;20111;-74
2023/09/29 02:11:39;;;;;;;4.00;1.13;;;;;;;9.77;100.00;100520.13;5042075;28;20047;-73
2023/09/29 02:14:05;;;;;;;13.43;1.15;;;;;;;9.75;100.00;100522.16;5058426;28;20044;-74
2023/09/29 02:16:44;;;;;;;8.10;1.50;;;;;;;9.75;100.00;100514.94;5074921;28;20039;-74
2023/09/29 02:19:10;;;;;;;6.57;1.00;;;;;;;9.78;100.00;100530.69;5041841;28;20124;-74
2023/09/29 02:21:36;;;;;;;3.60;1.10;;;;;;;9.74;100.00;100526.69;5057970;28;20368;-74
2023/09/29 02:24:03;;;;;;;5.20;1.17;;;;;;;9.79;100.00;100529.69;5058233;28;20036;-76
2023/09/29 02:26:29;;;;;;;2.33;0.77;;;;;;;9.79;100.00;100531.53;5042187;28;20101;-74
2023/09/29 02:28:56;;;;;;;1.65;0.60;;;;;;;9.82;100.00;100532.03;5041486;28;20040;-74
2023/09/29 02:31:22;;;;;;;7.95;1.55;;;;;;;9.90;100.00;100537.34;5041829;28;20490;-74
2023/09/29 02:33:50;;;;;;;11.13;1.80;;;;;;;9.99;100.00;100534.59;5058058;28;20036;-76
2023/09/29 02:36:16;;;;;;;4.72;1.02;;;;;;;10.01;100.00;100541.47;5058539;28;20398;-74
2023/09/29 02:38:42;;;;;;;9.60;1.25;;;;;;;9.99;100.00;100538.13;5074348;28;20029;-74
2023/09/29 02:41:10;;;;;;;9.98;1.48;;;;;;;10.01;100.00;100548.69;5058081;28;20374;-74
2023/09/29 02:43:36;;;;;;;3.80;0.85;;;;;;;10.08;100.00;100560.38;5058052;28;20047;-74
2023/09/29 02:46:02;;;;;;;3.22;1.10;;;;;;;10.12;100.00;100562.56;5041177;28;20086;-74
2023/09/29 02:48:28;;;;;;;7.18;1.30;;;;;;;10.17;100.00;100553.13;5057655;28;20028;-75
2023/09/29 02:50:53;;;;;;;11.07;1.25;;;;;;;10.18;100.00;100561.00;5057947;28;20028;-75
2023/09/29 02:53:19;;;;;;;9.85;1.27;;;;;;;10.18;100.00;100565.53;5057807;28;20092;-75
2023/09/29 02:55:45;;;;;;;5.60;0.98;;;;;;;10.17;100.00;100564.72;5074597;28;20440;-74
2023/09/29 02:58:12;;;;;;;5.65;1.30;;;;;;;10.17;100.00;100577.31;5058165;28;20029;-73
2023/09/29 03:00:39;;;;;;;8.30;1.02;;;;;;;10.18;100.00;100582.50;5041482;28;20036;-74
2023/09/29 03:03:05;;;;;;;13.18;1.92;;;;;;;10.21;100.00;100584.00;5041447;28;20044;-74
2023/09/29 03:05:32;;;;;;;4.72;1.10;;;;;;;10.27;100.00;100591.38;5041144;28;20044;-74
2023/09/29 03:08:01;;;;;;;10.05;1.58;;;;;;;10.31;100.00;100593.53;5074167;28;20471;-74
2023/09/29 03:10:28;;;;;;;9.45;1.92;;;;;;;10.36;100.00;100603.75;5057149;28;20043;-74
2023/09/29 03:12:57;;;;;;;9.52;1.27;;;;;;;10.37;100.00;100600.03;5073984;28;20044;-74
2023/09/29 03:15:29;;;;;;;1.90;0.68;;;;;;;10.37;100.00;100597.34;5040860;28;20055;-74
2023/09/29 03:17:55;;;;;;;7.45;0.90;;;;;;;10.39;100.00;100592.63;5040874;28;20024;-75
2023/09/29 03:20:21;;;;;;;8.43;1.33;;;;;;;10.33;100.00;100593.34;5057562;28;20032;-74
2023/09/29 03:22:48;;;;;;;9.23;1.90;;;;;;;10.27;100.00;100604.81;5041031;28;20033;-74
2023/09/29 03:25:20;;;;;;;9.75;1.77;;;;;;;10.22;100.00;100610.69;5058177;28;20133;-74
2023/09/29 03:27:47;;;;;;;8.63;1.42;;;;;;;10.22;100.00;100615.25;5057709;28;20032;-74
2023/09/29 03:30:15;;;;;;;2.60;0.88;;;;;;;10.20;100.00;100622.63;5074019;28;20108;-74
2023/09/29 03:32:41;;;;;;;2.22;0.73;;;;;;;10.17;100.00;100628.38;5040979;28;20033;-74
2023/09/29 03:35:08;;;;;;;9.55;1.80;;;;;;;10.11;100.00;100630.75;5040299;28;20044;-74
2023/09/29 03:37:36;;;;;;;9.43;1.75;;;;;;;10.10;100.00;100639.78;5057513;28;20074;-74
2023/09/29 03:40:09;;;;;;;10.10;1.55;;;;;;;10.10;100.00;100633.59;5040263;28;20040;-74
2023/09/29 03:42:36;;;;;;;7.38;1.63;;;;;;;10.09;100.00;100638.13;5073372;28;20039;-74
2023/09/29 03:45:09;;;;;;;11.98;2.22;;;;;;;10.09;100.00;100643.50;5040603;28;20040;-74
2023/09/29 03:47:37;;;;;;;13.57;1.98;;;;;;;10.10;100.00;100638.97;5041900;28;20037;-75
2023/09/29 03:50:08;;;;;;;14.82;2.13;;;;;;;10.23;100.00;100655.34;5056443;28;20035;-75
2023/09/29 03:52:35;;;;;;;4.80;0.77;;;;;;;10.38;100.00;100658.16;5040571;28;20051;-74
2023/09/29 03:55:01;;;;;;;7.13;1.42;;;;;;;10.48;100.00;100658.78;5073044;28;20394;-73
2023/09/29 03:57:26;;;;;;;8.50;1.48;;;;;;;10.56;100.00;100668.66;5056884;28;20036;-74
2023/09/29 03:59:52;;;;;;;7.60;1.65;;;;;;;10.63;100.00;100672.28;5056532;28;20024;-75
2023/09/29 04:02:21;;;;;;;6.32;1.40;;;;;;;10.64;100.00;100679.34;5041040;28;20129;-73
2023/09/29 04:04:47;;;;;;;8.18;1.38;;;;;;;10.60;100.00;100682.56;5056653;28;20479;-73
2023/09/29 04:07:15;;;;;;;14.15;1.23;;;;;;;10.51;100.00;100682.63;5056925;28;20094;-74
2023/09/29 04:09:44;;;;;;;9.45;1.50;;;;;;;10.39;100.00;100686.72;5073068;28;20028;-73
2023/09/29 04:12:09;;;;;;;6.15;1.40;;;;;;;10.39;100.00;100692.09;5039947;28;20086;-73
2023/09/29 04:14:35;;;;;;;8.05;1.80;;;;;;;10.34;100.00;100695.28;5040027;28;20129;-74
2023/09/29 04:17:04;;;;;;;12.93;1.60;;;;;;;10.25;100.00;100698.19;5073020;28;20479;-73
2023/09/29 04:19:29;;;;;;;8.10;2.20;;;;;;;10.14;100.00;100707.47;5072689;28;20020;-74
2023/09/29 04:21:55;;;;;;;15.95;1.83;;;;;;;10.10;100.00;100716.88;5055791;28;20127;-74
2023/09/29 04:24:20;;;;;;;12.48;1.83;;;;;;;10.01;100.00;100716.06;5039932;28;20117;-73
2023/09/29 04:26:46;;;;;;;10.35;1.60;;;;;;;9.90;100.00;100719.13;5039531;28;20445;-73
2023/09/29 04:29:14;;;;;;;9.82;1.48;;;;;;;9.78;100.00;100725.88;5038896;28;20028;-73
2023/09/29 04:31:40;;;;;;;9.40;1.88;;;;;;;9.62;100.00;100722.22;5039886;28;20115;-74
2023/09/29 04:34:06;;;;;;;7.10;1.35;;;;;;;9.45;100.00;100729.44;5039745;28;20078;-73
2023/09/29 04:36:33;;;;;;;10.70;1.23;;;;;;;9.20;100.00;100742.03;5039393;28;20032;-73
2023/09/29 04:38:59;;;;;;;8.07;1.20;;;;;;;9.08;100.00;100746.06;5056181;28;20498;-73
2023/09/29 04:41:50;;;;;;;9.05;1.85;;;;;;;9.20;100.00;100744.72;5039462;28;20032;-73
2023/09/29 04:44:15;;;;;;;5.32;1.27;;;;;;;9.39;100.00;100753.44;5039891;28;20029;-73
2023/09/29 04:46:42;;;;;;;14.77;1.40;;;;;;;9.58;100.00;100750.41;5072288;28;20101;-73
2023/09/29 04:49:07;;;;;;;1.65;0.38;;;;;;;9.84;100.00;100754.72;5055468;28;20467;-73
2023/09/29 04:51:33;;;;;;;8.18;1.75;;;;;;;10.10;100.00;100758.00;5039400;28;20032;-73
2023/09/29 04:54:02;;;;;;;8.15;1.02;;;;;;;10.31;100.00;100760.16;5039368;28;20044;-74
2023/09/29 04:56:28;;;;;;;4.63;1.10;;;;;;;10.48;100.00;100758.25;5055982;28;20028;-73
2023/09/29 04:58:54;;;;;;;8.40;1.40;;;;;;;10.63;100.00;100769.09;5055760;28;20032;-73
2023/09/29 05:01:20;;;;;;;2.42;0.63;;;;;;;10.72;100.00;100772.59;5039346;28;20036;-73
2023/09/29 05:03:50;;;;;;;6.20;1.33;;;;;;;10.79;100.00;100774.38;5055163;28;20459;-73
2023/09/29 05:06:16;;;;;;;4.55;0.85;;;;;;;10.81;100.00;100768.81;5056161;28;20040;-73
2023/09/29 05:08:44;;;;;;;2.28;0.90;;;;;;;10.82;100.00;100773.19;5055281;28;20043;-73
2023/09/29 05:11:27;;;;;;;1.40;0.70;;;;;;;10.80;100.00;100777.91;5039464;28;20032;-74
2023/09/29 05:13:54;;;;;;;4.18;1.00;;;;;;;10.77;100.00;100780.97;5072024;28;20032;-73
2023/09/29 05:16:24;;;;;;;8.07;1.35;;;;;;;10.68;100.00;100782.00;5038799;28;20182;-73
2023/09/29 05:18:50;;;;;;;4.72;0.73;;;;;;;10.53;100.00;100790.81;5055708;28;20032;-73
2023/09/29 05:21:17;;;;;;;8.90;1.85;;;;;;;10.46;100.00;100800.59;5039024;28;20044;-74
2023/09/29 05:23:42;;;;;;;5.82;1.45;;;;;;;10.48;100.00;100812.00;5055580;28;20435;-73
2023/09/29 05:26:09;;;;;;;7.13;0.95;;;;;;;10.54;100.00;100823.91;5038832;28;20089;-73
2023/09/29 05:28:35;;;;;;;8.68;1.38;;;;;;;10.59;100.00;100828.78;5071762;28;20475;-73
2023/09/29 05:31:04;;;;;;;4.68;0.98;;;;;;;10.61;100.00;100830.28;5038614;28;20118;-73
2023/09/29 05:33:30;;;;;;;1.95;1.00;;;;;;;10.60;100.00;100830.44;5040068;28;20036;-73
2023/09/29 05:35:57;;;;;;;3.22;0.65;;;;;;;10.66;100.00;100837.81;5075805;28;20033;-73
2023/09/29 05:38:23;;;;;;;2.45;0.75;;;;;;;10.64;100.00;100835.31;5059448;28;20032;-74
2023/09/29 05:40:52;;;;;;;7.00;1.30;;;;;;;10.68;100.00;100830.41;5059514;28;20043;-73
2023/09/29 05:43:18;;;;;;;4.47;0.90;;;;;;;10.64;100.00;100835.31;5059157;28;20078;-74
2023/09/29 05:45:48;;;;;;;12.32;1.58;;;;;;;10.48;100.00;100840.75;5042709;28;20025;-73
2023/09/29 05:48:14;;;;;;;7.93;1.25;;;;;;;10.31;100.00;100845.31;5042166;28;20045;-73
2023/09/29 05:50:41;;;;;;;5.30;1.63;;;;;;;10.22;100.00;100849.84;5042655;28;20040;-74
2023/09/29 05:53:07;;;;;;;8.88;1.20;;;;;;;10.15;100.00;100848.03;5042717;28;20032;-73
2023/09/29 05:55:32;;;;;;;11.23;1.45;;;;;;;10.02;100.00;100865.50;5042521;28;20040;-73
2023/09/29 05:57:58;;;;;;;4.82;1.08;;;;;;;9.87;100.00;100867.16;5042554;28;20051;-73
2023/09/29 06:00:24;;;;;;;7.28;1.30;;;;;;;9.75;100.00;100871.22;5042283;28;20032;-74
2023/09/29 06:02:52;;;;;;;6.80;1.50;;;;;;;9.64;100.00;100869.72;5059189;28;20036;-73
2023/09/29 06:05:18;;;;;;;10.55;1.60;;;;;;;9.59;100.00;100867.50;5058943;28;20055;-73
2023/09/29 06:07:45;;;;;;;5.82;1.90;;;;;;;9.62;100.00;100875.22;5058696;28;20029;-73
2023/09/29 06:10:11;;;;;;;10.43;1.48;;;;;;;9.69;100.00;100878.09;5058208;28;20036;-73
2023/09/29 06:12:39;;;;;;;6.38;1.67;;;;;;;9.63;100.00;100881.44;5057957;28;20032;-73
2023/09/29 06:15:06;;;;;;;5.10;0.90;;;;;;;9.58;100.00;100878.41;5058791;28;20040;-73
2023/09/29 06:17:34;;;;;;;12.45;1.92;;;;;;;9.51;100.00;100877.41;5058118;28;20032;-73
2023/09/29 06:20:04;;;;;;;10.10;1.70;;;;;;;9.42;100.00;100884.59;5059329;28;20064;-73
2023/09/29 06:22:29;;;;;;;8.30;1.20;;;;;;;9.31;100.00;100891.13;5042233;28;20111;-73
2023/09/29 06:24:55;;;;;;;7.00;1.27;;;;;;;9.29;100.00;100893.16;5058368;28;20061;-74
2023/09/29 06:27:21;;;;;;;13.00;1.92;;;;;;;9.32;100.00;100900.03;5042055;28;20382;-73
2023/09/29 06:29:50;;;;;;;4.85;0.98;;;;;;;9.32;100.00;100902.72;5041687;28;20459;-74
2023/09/29 06:32:18;;;;;;;6.75;1.33;;;;;;;9.25;100.00;100900.66;5058683;28;20031;-74
2023/09/29 06:34:47;;;;;;;5.82;1.02;;;;;;;9.28;100.00;100906.72;5041856;28;20040;-73
2023/09/29 06:37:13;;;;;;;11.18;1.65;;;;;;;9.23;100.00;100910.75;5041785;28;20113;-73
2023/09/29 06:39:38;;;;;;;6.60;1.20;;;;;;;9.22;100.00;100918.94;5041533;28;20467;-73
2023/09/29 06:42:04;;;;;;;9.57;1.42;;;;;;;9.18;100.00;100914.91;5058337;28;20025;-73
2023/09/29 06:44:34;;;;;;;11.43;1.52;;;;;;;9.19;100.00;100919.28;5074470;28;20036;-74
2023/09/29 06:47:16;;;;;;;5.57;1.00;;;;;;;9.28;100.00;100923.66;5072526;28;20617;-73
2023/09/29 06:49:42;;;;;;;6.40;1.27;;;;;;;9.34;100.00;100930.19;5057977;28;20119;-73
2023/09/29 06:52:08;;;;;;;14.32;1.80;;;;;;;9.42;100.00;100931.09;5041142;28;20395;-73
2023/09/29 06:54:33;;;;;;;13.93;1.42;;;;;;;9.51;100.00;100931.94;5040781;28;20387;-73
2023/09/29 06:57:00;;;;;;;10.43;1.30;;;;;;;9.54;100.00;100934.28;5057564;28;20124;-73
2023/09/29 06:59:26;;;;;;;12.50;1.92;;;;;;;9.61;100.00;100948.75;5074430;28;20036;-74
2023/09/29 07:01:54;;;;;;;2.47;1.15;;;;;;;9.71;100.00;100950.41;5040656;28;20383;-74
2023/09/29 07:04:20;;;;;;;11.80;1.20;;;;;;;9.84;100.00;100961.50;5041206;28;20032;-74
2023/09/29 07:06:46;;;;;;;4.70;1.45;;;;;;;10.06;100.00;100950.13;5041019;28;20039;-73
2023/09/29 07:09:12;;;;;;;7.88;1.50;;;;;;;10.19;100.00;100957.69;5041045;28;20056;-73
2023/09/29 07:11:41;;;;;;;4.03;1.15;;;;;;;10.38;100.00;100963.75;5040734;28;20030;-73
2023/09/29 07:14:07;;;;;;;11.80;1.90;;;;;;;10.49;100.00;100972.28;5041022;28;20039;-75
2023/09/29 07:16:33;;;;;;;5.97;1.17;;;;;;;10.37;100.00;100967.44;5057645;28;20387;-73
2023/09/29 07:18:58;;;;;;;7.60;1.35;;;;;;;10.27;100.00;100978.34;5040786;28;20043;-73
2023/09/29 07:21:24;;;;;;;5.68;1.30;;;;;;;10.35;100.00;100983.75;5056791;28;20467;-74
2023/09/29 07:23:50;;;;;;;7.40;1.38;;;;;;;10.65;100.00;100981.34;5055774;28;20459;-74
2023/09/29 07:26:16;;;;;;;9.73;1.58;;;;;;;10.82;100.00;100991.06;5039281;28;20483;-74
2023/09/29 07:28:42;;;;;;;6.63;1.63;;;;;;;10.92;100.00;100993.56;5056195;28;20086;-74
2023/09/29 07:31:07;;;;;;;8.07;1.25;;;;;;;10.92;100.00;101005.16;5056436;28;20082;-74
2023/09/29 07:33:36;;;;;;;9.95;1.55;;;;;;;10.84;100.00;101013.25;5040328;28;20037;-74
2023/09/29 07:36:02;;;;;;;2.78;0.88;;;;;;;10.78;100.00;101005.88;5040408;28;20028;-74
2023/09/29 07:38:27;;;;;;;9.07;1.02;;;;;;;10.84;100.00;101015.94;5040203;28;20044;-75
2023/09/29 07:40:53;;;;;;;5.72;0.90;;;;;;;10.85;100.00;101011.38;5039403;28;20033;-74
2023/09/29 07:43:22;;;;;;;2.35;1.45;;;;;;;11.23;100.00;101020.53;5039434;28;20391;-73
2023/09/29 07:45:54;;;;;;;2.55;0.80;;;;;;;12.06;100.00;101029.91;5040127;28;20467;-74
2023/09/29 07:48:19;;;;;;;4.32;0.95;;;;;;;12.66;100.00;101029.09;5040456;28;20127;-73
2023/09/29 07:50:45;;;;;;;7.75;1.15;;;;;;;12.52;100.00;101040.69;5072780;28;20435;-75
2023/09/29 07:53:11;;;;;;;9.98;1.40;;;;;;;11.97;100.00;101042.59;5039898;28;20033;-73
2023/09/29 07:55:43;;;;;;;6.88;1.10;;;;;;;11.76;100.00;101047.75;5072274;28;20032;-74
2023/09/29 07:58:10;;;;;;;6.65;1.83;;;;;;;11.67;100.00;101052.34;5072844;28;20055;-74
2023/09/29 08:00:35;;;;;;;8.10;1.13;;;;;;;11.50;100.00;101051.56;5056117;28;20387;-73
2023/09/29 08:03:01;;;;;;;5.82;0.80;;;;;;;11.39;100.00;101057.34;5056288;28;20037;-74
2023/09/29 08:05:27;;;;;;;6.25;1.20;;;;;;;11.74;100.00;101058.69;5056009;28;20078;-74
2023/09/29 08:07:59;;;;;;;7.18;1.23;;;;;;;13.21;100.00;101062.13;5039752;28;20040;-76
2023/09/29 08:10:28;;;;;;;7.43;1.02;;;;;;;13.53;100.00;101060.91;5072965;28;20513;-74
2023/09/29 08:12:54;;;;;;;8.50;1.50;;;;;;;12.60;100.00;101067.59;5056127;28;20028;-74
2023/09/29 08:15:21;;;;;;;4.93;0.85;;;;;;;13.75;100.00;101077.19;5056510;28;20162;-74
2023/09/29 08:17:48;;;;;;;5.00;1.27;;;;;;;14.37;100.00;101071.25;5056509;28;20044;-73
2023/09/29 08:20:14;;;;;;;4.03;1.38;;;;;;;14.82;100.00;101079.16;5072792;28;20406;-73
2023/09/29 08:22:40;;;;;;;9.05;1.58;;;;;;;15.14;100.00;101081.28;5073935;28;20045;-74
2023/09/29 08:25:07;;;;;;;3.95;1.02;;;;;;;15.47;100.00;101090.66;5039573;28;20085;-73
2023/09/29 08:27:35;;;;;;;6.63;2.20;;;;;;;15.78;100.00;101104.59;5039784;28;20031;-74
2023/09/29 08:30:01;;;;;;;11.45;1.70;;;;;;;16.17;100.00;101105.78;5072546;28;20031;-74
2023/09/29 08:32:27;;;;;;;9.07;1.60;;;;;;;16.49;100.00;101098.75;5039641;28;20037;-74
2023/09/29 08:34:52;;;;;;;5.65;1.17;;;;;;;16.76;100.00;101103.38;5072396;28;20039;-75
2023/09/29 08:37:18;;;;;;;6.15;1.20;;;;;;;16.88;100.00;101101.72;5073797;28;20028;-74
2023/09/29 08:39:44;;;;;;;4.68;1.50;;;;;;;16.80;100.00;101101.94;5072529;28;20033;-75
2023/09/29 08:42:26;;;;;;;6.05;1.38;;;;;;;16.89;100.00;101101.53;5072475;28;20115;-73
2023/09/29 08:44:54;;;;;;;9.68;1.70;;;;;;;16.98;100.00;101115.72;5039582;28;20032;-73
2023/09/29 08:47:23;;;;;;;6.90;2.10;;;;;;;16.79;100.00;101133.69;5039225;28;20065;-73
2023/09/29 08:49:49;;;;;;;4.82;1.00;;;;;;;17.00;100.00;101123.69;5022629;28;20028;-73
2023/09/29 08:52:18;;;;;;;9.30;1.67;;;;;;;17.59;100.00;101126.31;5039149;28;20044;-73
2023/09/29 08:54:50;;;;;;;4.70;1.25;;;;;;;18.31;100.00;101130.88;5072447;28;20025;-73
2023/09/29 08:57:16;;;;;;;1.65;0.70;;;;;;;17.30;100.00;101134.94;5039375;28;20368;-74
2023/09/29 08:59:43;;;;;;;3.20;0.70;;;;;;;16.07;100.00;101137.06;5039351;28;20094;-73
2023/09/29 09:02:09;;;;;;;7.57;1.13;;;;;;;14.92;100.00;101139.22;5072247;28;20040;-74
2023/09/29 09:04:38;;;;;;;4.10;1.33;;;;;;;14.40;100.00;101146.59;5056017;28;20028;-73
2023/09/29 09:07:04;;;;;;;4.70;1.05;;;;;;;14.35;100.00;101151.75;5039057;28;20029;-74
2023/09/29 09:09:30;;;;;;;7.55;1.17;;;;;;;14.35;100.00;101157.16;5038924;28;20035;-74
2023/09/29 09:11:56;;;;;;;6.03;1.23;;;;;;;14.28;100.00;101158.94;5055299;28;20391;-73
2023/09/29 09:14:21;;;;;;;5.80;1.30;;;;;;;15.07;100.00;101164.34;5055740;28;20048;-73
2023/09/29 09:16:47;;;;;;;10.55;1.48;;;;;;;14.29;100.00;101164.19;5055421;28;20544;-73
2023/09/29 09:19:15;;;;;;;9.35;1.58;;;;;;;14.12;100.00;101176.22;5055697;28;20039;-73
2023/09/29 09:21:42;;;;;;;6.40;1.85;;;;;;;14.40;100.00;101173.66;5072003;28;20028;-73
2023/09/29 09:24:21;;;;;;;3.60;1.10;;;;;;;14.76;100.00;101180.94;5055415;28;20496;-72
2023/09/29 09:26:48;;;;;;;10.85;1.60;;;;;;;15.29;100.00;101181.38;5038722;28;20032;-75
2023/09/29 09:29:17;;;;;;;3.03;0.90;;;;;;;15.49;100.00;101181.56;5071599;28;20040;-73
2023/09/29 09:31:43;;;;;;;6.88;3.75;;;;;;;15.12;100.00;101198.97;5071632;28;20035;-73
2023/09/29 09:34:09;;;;;;;5.93;1.98;;;;;;;15.10;100.00;101182.91;5055501;28;20032;-73
2023/09/29 09:36:44;;;;;;;2.85;1.10;;;;;;;15.90;100.00;101188.91;5055164;28;20033;-73
2023/09/29 09:39:10;;;;;;;5.10;0.93;;;;;;;16.24;100.00;101201.59;5039051;28;20127;-73
2023/09/29 09:41:36;;;;;;;5.07;1.27;;;;;;;16.31;100.00;101206.22;5055075;28;20107;-73
2023/09/29 09:44:01;;;;;;;2.13;1.00;;;;;;;16.70;100.00;101205.53;5038909;28;20040;-73
2023/09/29 09:46:28;;;;;;;9.52;1.45;;;;;;;15.95;100.00;101207.31;5055536;28;20109;-73
2023/09/29 09:49:08;;;;;;;6.38;1.50;;;;;;;15.56;100.00;101211.44;5038839;28;20040;-73
2023/09/29 09:51:35;;;;;;;11.52;2.03;;;;;;;16.56;100.00;101225.53;5056677;28;20472;-74
2023/09/29 09:54:08;;;;;;;5.30;1.20;;;;;;;16.94;100.00;101222.31;5071848;28;20029;-73
2023/09/29 09:56:50;;;;;;;10.25;1.63;;;;;;;18.60;100.00;101222.88;5071944;28;20032;-74
2023/09/29 09:59:16;;;;;;;1.98;0.68;;;;;;;18.50;100.00;101221.66;5039029;28;20033;-73
2023/09/29 10:01:45;;;;;;;2.55;0.93;;;;;;;18.15;100.00;101224.72;5038372;28;20043;-75
2023/09/29 10:04:12;;;;;;;4.72;1.75;;;;;;;17.72;100.00;101236.94;5070878;28;20031;-75
2023/09/29 10:06:39;;;;;;;8.75;1.50;;;;;;;19.64;100.00;101234.31;5053608;28;20040;-74
2023/09/29 10:09:10;;;;;;;6.45;1.35;;;;;;;20.54;100.00;101233.78;5053367;28;20064;-75
2023/09/29 10:11:42;;;;;;;8.82;2.28;;;;;;;20.99;100.00;101244.28;5054042;28;20035;-75
2023/09/29 10:14:10;;;;;;;8.88;1.90;;;;;;;21.01;100.00;101263.16;5054168;28;20043;-75
2023/09/29 10:16:36;;;;;;;8.98;2.10;;;;;;;20.70;100.00;101256.06;5053451;28;20032;-76
2023/09/29 10:19:12;;;;;;;9.60;1.73;;;;;;;20.97;100.00;101270.19;5070740;28;20356;-76
2023/09/29 10:21:43;;;;;;;8.90;1.58;;;;;;;21.15;100.00;101261.09;5026483;28;20036;-78
2023/09/29 10:24:13;;;;;;;11.15;2.25;;;;;;;21.01;100.00;101266.75;5056911;28;20576;-76
2023/09/29 10:26:47;;;;;;;8.10;1.90;;;;;;;21.22;100.00;101273.59;5073771;28;20032;-75
2023/09/29 10:29:19;;;;;;;11.90;2.35;;;;;;;20.95;100.00;101269.56;5074336;28;20031;-75
2023/09/29 10:31:44;;;;;;;7.70;1.67;;;;;;;19.03;100.00;101267.72;5076093;28;20090;-76
2023/09/29 10:34:19;;;;;;;5.65;1.70;;;;;;;19.47;100.00;101274.09;5074496;28;20569;-75
2023/09/29 10:36:44;;;;;;;8.05;2.20;;;;;;;19.12;100.00;101285.47;5074678;28;20029;-75
2023/09/29 10:39:29;;;;;;;8.02;2.50;;;;;;;18.18;100.00;101289.66;5057961;28;20033;-75
2023/09/29 10:42:14;;;;;;;10.25;2.30;;;;;;;16.68;100.00;101287.19;5042231;28;20033;-75
2023/09/29 10:44:52;;;;;;;7.18;1.60;;;;;;;15.69;100.00;101295.59;5059313;28;20044;-74
2023/09/29 10:47:36;;;;;;;8.18;1.80;;;;;;;17.43;100.00;101294.47;5059005;28;20102;-75
2023/09/29 10:50:11;;;;;;;9.52;2.03;;;;;;;18.15;100.00;101292.78;5058544;28;20042;-75
2023/09/29 10:52:45;;;;;;;9.07;1.77;;;;;;;18.62;100.00;101307.91;5041526;28;20124;-75
2023/09/29 10:55:16;;;;;;;5.15;1.90;;;;;;;19.29;100.00;101308.44;5058033;28;20372;-75
2023/09/29 10:57:42;;;;;;;7.40;2.00;;;;;;;19.90;100.00;101309.66;5074018;28;20067;-74
2023/09/29 11:00:11;;;;;;;6.95;1.55;;;;;;;20.47;100.00;101311.38;5057780;28;20053;-74
2023/09/29 11:02:37;;;;;;;5.45;1.98;;;;;;;20.66;100.00;101318.53;5039986;28;20035;-73
2023/09/29 11:05:09;;;;;;;6.05;1.92;;;;;;;20.37;100.00;101312.72;5073564;28;20028;-73
2023/09/29 11:07:51;;;;;;;9.40;2.23;;;;;;;20.19;100.00;101312.72;5040163;28;20028;-73
2023/09/29 11:10:24;;;;;;;8.15;2.08;;;;;;;19.65;100.00;101311.53;5058223;28;20312;-75
2023/09/29 11:12:50;;;;;;;9.68;2.70;;;;;;;19.45;100.00;101317.97;5057827;28;20040;-75
2023/09/29 11:15:18;;;;;;;7.85;1.90;;;;;;;19.42;100.00;101318.41;5057671;28;20048;-76
2023/09/29 11:17:50;;;;;;;9.15;2.10;;;;;;;19.43;100.00;101322.81;5057341;28;20037;-76
2023/09/29 11:20:26;;;;;;;9.57;1.80;;;;;;;19.26;100.00;101325.22;5041063;28;20475;-76